This is the latest recevied weather packets stored in our database for station/object SR8WXL-13. If no packets are shown the sender has not sent any weather packets the latest 10 day(s).
| Time | Temp. | Humidity | Pressure | Rain* | Wind** | Luminosity | Snow |
|---|---|---|---|---|---|---|---|
| 1787705901 | 12.78° C | 90% | 1033 hPa | 0 mm | - | - | - |
| 1787705023 | 12.78° C | 90% | 1032.9 hPa | 0 mm | - | - | - |
| 1787704249 | 12.78° C | 90% | 1033 hPa | 0 mm | - | - | - |
| 1787703492 | 12.78° C | 89% | 1033 hPa | 0 mm | - | - | - |
| 1787702757 | 12.78° C | 89% | 1033.1 hPa | 0 mm | - | - | - |
| 1787701893 | 12.78° C | 88% | 1033 hPa | 0 mm | - | - | - |
| 1787701054 | 12.78° C | 87% | 1032.9 hPa | 0 mm | - | - | - |
| 1787700323 | 12.78° C | 86% | 1033 hPa | 0 mm | - | - | - |
| 1787699565 | 13.89° C | 84% | 1032.8 hPa | 0 mm | - | - | - |
| 1787698736 | 13.89° C | 84% | 1033 hPa | 0 mm | - | - | - |
| 1787697964 | 13.89° C | 83% | 1033 hPa | 0 mm | - | - | - |
| 1787697054 | 13.89° C | 81% | 1033 hPa | 0 mm | - | - | - |
| 1787696319 | 13.89° C | 80% | 1032.8 hPa | 0 mm | - | - | - |
| 1787695480 | 15° C | 78% | 1033 hPa | 0 mm | - | - | - |
| 1787694691 | 15° C | 77% | 1032.9 hPa | 0 mm | - | - | - |
| 1787693865 | 15° C | 77% | 1033.1 hPa | 0 mm | - | - | - |
| 1787693061 | 15° C | 76% | 1033.1 hPa | 0 mm | - | - | - |
| 1787692320 | 15° C | 80% | 1033.3 hPa | 0 mm | - | - | - |
| 1787691550 | 15° C | 80% | 1033.2 hPa | 0 mm | - | - | - |
| 1787690711 | 15° C | 80% | 1033.4 hPa | 0 mm | - | - | - |
| 1787689813 | 15° C | 79% | 1033.2 hPa | 0 mm | - | - | - |
| 1787689044 | 15° C | 82% | 1033.6 hPa | 0 mm | - | - | - |
| 1787688155 | 15° C | 79% | 1033.5 hPa | 0 mm | - | - | - |
| 1787687332 | 15° C | 80% | 1033.6 hPa | 0 mm | - | - | - |
| 1787686481 | 15° C | 81% | 1033.5 hPa | 0 mm | - | - | - |
* Rain latest hour (hover to see other rain measurements)
** Current wind speed in m/s (hover to see current wind gust speed)